Aeroporto :







RITROVATECI SU...

 
LOGIN :

Iscrizione | Disclaimer

   EN    FR    IT 

 









Sommario :    VFR   VFR Marginale   IFR   IFR Intensivo   IFR Molto Intensivo
Visibilità : 
Base nubi : 
>= 8 km
>= 3000ft
5 / 8 km
1000 / 3000 ft
1500m / 5 km
500 / 1000 ft
800 / 1500m
200 / 500 ft
< 800m
< 200 ft
Simboli :   Temporali  Nebbia  Neve Forte  Precipitazioni Forti  Vento > 20 kt






- Altitudine del aeroporto : 342 ft


KCON - Concord Municipal

ULTIMO METAR :
  • 301951Z AUTO 10007KT 10SM SCT012 BKN018 OVC045 04/02 A2998 RMK AO2 RAB17E51 SLP156 P0000 T00390017

METARs OBSOLETI :
  • 301927Z AUTO 07005KT 10SM -RA SCT010 BKN022 OVC026 04/02 A2998 RMK AO2 RAB17 P0000 T00440017
  • 301851Z AUTO 09007KT 10SM BKN012 OVC020 04/02 A2998 RMK AO2 SLP155 T00440017
  • 301751Z AUTO 06006KT 10SM SCT014 BKN024 OVC037 04/02 A2998 RMK AO2 RAE1653B11E14B30E48 SLP155 P0000 60001 T00440022 10056 20022 56010
  • 301738Z AUTO 05009KT 6SM -RA FEW012 BKN018 OVC038 04/02 A2998 RMK AO2 RAE1653B11E14B30 P0000 T00440017
  • 301724Z AUTO 05006KT 10SM SCT014 OVC038 05/02 A2998 RMK AO2 RAE1653B11E14 P0000 T00500017

TAF KCON
Valido dal 30 a 18 ore il 31 a 18 ore UTC


301726Z 3018/3118 10007KT 4SM -RA BKN020 OVC035
FM310500 02004KT 5SM BR OVC015
FM311500 01005KT P6SM OVC050



MetMap, La meteo Aeronautica in un colpo d'occhio ! - Copyright ORBIFLY Dicembre 2007 - Disclaimer

ORBIFLY MET'MAP TEAM :

Programmazione e sviluppo : Alexandra Zaïnal
Concezione : Baudouin d'Aumeries
Aiuto per la programmazione : Marc-Olivier Méhu
Supporto tecnico e logistico : Manuel Goepfert
Aiuto per la traduzione : Arnaldo La Scala

Contatto : metmap@orbifly.com




FONTI E CREDITI :

   NOAA